Flight Track Log - Related Links

Times and Time Zones

All times are in EDT time to prevent confusion due to time zone crossing. See the N509QS flight status page for this flight to view local times or setup timezone preferences in your user account.

Time Position Orientation Groundspeed Altitude Reporting Facility
EDT Latitude Longitude Course Direction KTS MPH feet Rate Location/Type
Mon 05:37:41 AM 29.9619 -90.2619 201° Southwest 191 220 1,400  Level Houston Center
Mon 05:38:42 AM 29.9097 -90.2797 196° South 194 223 4,000 2,777 Climbing Houston Center
Mon 05:39:42 AM 29.8403 -90.2717 174° South 250 288 7,000 3,000 Climbing Houston Center
Mon 05:40:42 AM 29.7694 -90.2528 167° South 263 303 10,000 2,150 Climbing Houston Center
Mon 05:41:42 AM 29.6939 -90.2247 162° South 277 319 11,300 1,736 Climbing Houston Center
Mon 05:42:43 AM 29.6008 -90.1917 163° South 338 389 13,500 2,281 Climbing Houston Center
Mon 05:43:43 AM 29.4822 -90.1489 163° South 371 427 15,900 2,300 Climbing Houston Center
Mon 05:44:43 AM 29.3789 -90.1117 163° South 388 447 18,100 2,050 Climbing Houston Center
Mon 05:45:43 AM 29.2706 -90.0731 163° South 406 467 20,000 1,850 Climbing Houston Center
Mon 05:46:43 AM 29.1572 -90.0325 163° South 425 489 21,800 1,884 Climbing Houston Center
Mon 05:47:44 AM 29.0406 -89.9911 163° South 438 504 23,800 1,785 Climbing Houston Center
Mon 05:48:44 AM 28.9211 -89.9492 163° South 449 517 25,400 1,700 Climbing Houston Center
Mon 05:49:44 AM 28.7981 -89.9058 163° South 460 529 27,200 1,600 Climbing Houston Center
Mon 05:50:44 AM 28.6711 -89.8614 163° South 474 545 28,600 1,339 Climbing Houston Center
Mon 05:51:45 AM 28.5425 -89.8147 162° South 483 556 29,900 1,289 Climbing Houston Center
Mon 05:52:45 AM 28.4097 -89.7678 163° South 498 573 31,200 1,200 Climbing Houston Center
Mon 05:53:45 AM 28.2753 -89.7217 163° South 505 581 32,300 1,250 Climbing Houston Center
Mon 05:54:45 AM 28.1414 -89.6653 160° South 511 588 33,700 1,350 Climbing Houston Center
Mon 05:55:45 AM 28.0086 -89.6114 160° South 508 585 35,000 1,240 Climbing Houston Center
Mon 05:56:46 AM 27.8761 -89.5550 159° South 506 582 36,200 1,240 Climbing Houston Center
Mon 05:57:46 AM 27.7425 -89.4975 159° South 510 587 37,500 1,250 Climbing Houston Center
Mon 05:58:46 AM 27.6111 -89.4431 160° South 506 582 38,700 700 Climbing Houston Center
Mon 05:59:46 AM 27.4797 -89.3908 161° South 503 579 38,900 99 Climbing Houston Center
Mon 06:00:47 AM 27.3453 -89.3397 161° South 505 581 38,900  Level Houston Center
Mon 06:02:00 AM 27.1905 -89.2725 159° South  Level FlightAware Approximate
Mon 06:09:00 AM 26.2930 -88.9089 160° South  Level FlightAware Approximate
Mon 06:10:00 AM 26.1649 -88.8569 160° South  Level FlightAware Approximate
Mon 06:11:00 AM 26.0368 -88.8051 160° South  Level FlightAware Approximate
Mon 06:12:00 AM 25.9086 -88.7533 160° South  Level FlightAware Approximate
Mon 06:13:00 AM 25.7804 -88.7017 160° South  Level FlightAware Approximate
Mon 06:14:00 AM 25.6522 -88.6501 160° South  Level FlightAware Approximate
Mon 06:15:00 AM 25.5240 -88.5987 160° South  Level FlightAware Approximate
Mon 06:16:00 AM 25.3958 -88.5474 160° South  Level FlightAware Approximate
Mon 06:17:00 AM 25.2676 -88.4961 160° South  Level FlightAware Approximate
Mon 06:18:00 AM 25.1393 -88.4450 160° South  Level FlightAware Approximate
Mon 06:19:00 AM 25.0110 -88.3940 160° South  Level FlightAware Approximate
Mon 06:20:00 AM 24.8826 -88.3435 161° South  Level FlightAware Approximate
Mon 06:21:00 AM 24.7536 -88.2950 161° South  Level FlightAware Approximate
Mon 06:22:00 AM 24.6245 -88.2466 161° South  Level FlightAware Approximate
Mon 06:23:00 AM 24.4955 -88.1982 160° South  Level FlightAware Approximate
Mon 06:24:00 AM 24.3671 -88.1477 160° South  Level FlightAware Approximate
Mon 06:25:00 AM 24.2388 -88.0973 160° South  Level FlightAware Approximate
Mon 06:26:00 AM 24.1104 -88.0469 160° South  Level FlightAware Approximate
Mon 06:27:00 AM 23.9820 -87.9967 160° South  Level FlightAware Approximate
Mon 06:28:00 AM 23.8536 -87.9466 160° South  Level FlightAware Approximate
Mon 06:29:00 AM 23.7251 -87.8966 160° South  Level FlightAware Approximate
Mon 06:30:00 AM 23.5967 -87.8466 160° South  Level FlightAware Approximate
Mon 06:31:00 AM 23.4682 -87.7968 160° South  Level FlightAware Approximate
Mon 06:32:00 AM 23.3398 -87.7471 160° South  Level FlightAware Approximate
Mon 06:33:00 AM 23.2113 -87.6974 160° South  Level FlightAware Approximate
Mon 06:34:00 AM 23.0828 -87.6479 160° South  Level FlightAware Approximate
Mon 06:35:00 AM 22.9542 -87.5984 160° South  Level FlightAware Approximate
Mon 06:36:00 AM 22.8257 -87.5491 161° South  Level FlightAware Approximate
Mon 06:37:00 AM 22.6971 -87.4998 161° South  Level FlightAware Approximate
Mon 06:38:00 AM 22.5686 -87.4507 161° South  Level FlightAware Approximate
Mon 06:39:00 AM 22.4400 -87.4016 161° South  Level FlightAware Approximate
Mon 06:40:00 AM 22.3114 -87.3526 161° South  Level FlightAware Approximate
Mon 06:41:00 AM 22.1828 -87.3037 161° South  Level FlightAware Approximate
Mon 06:42:00 AM 22.0542 -87.2549 161° South  Level FlightAware Approximate
Mon 06:43:00 AM 21.9255 -87.2062 161° South  Level FlightAware Approximate
Mon 06:44:00 AM 21.7969 -87.1576 161° South  Level FlightAware Approximate
Mon 06:45:00 AM 21.6682 -87.1090 161° South  Level FlightAware Approximate
Mon 06:46:00 AM 21.5400 -87.0592 160° South  Level FlightAware Approximate
Mon 06:47:00 AM 21.4122 -87.0080 160° South  Level FlightAware Approximate
Mon 06:48:00 AM 21.2845 -86.9569 160° South  Level FlightAware Approximate
Mon 06:49:00 AM 21.1567 -86.9058 160° South  Level FlightAware Approximate
Mon 06:50:00 AM 21.0289 -86.8549 160° South  Level FlightAware Approximate
Mon 06:51:00 AM 20.9276 -86.7587 136° Southeast  Level FlightAware Approximate
Mon 06:52:00 AM 20.8291 -86.6578 136° Southeast  Level FlightAware Approximate
Mon 06:53:00 AM 20.7305 -86.5571 136° Southeast  Level FlightAware Approximate
Mon 06:54:00 AM 20.6319 -86.4565 136° Southeast  Level FlightAware Approximate
Mon 06:55:00 AM 20.5332 -86.3560 136° Southeast  Level FlightAware Approximate
Mon 06:56:00 AM 20.4344 -86.2556 136° Southeast  Level FlightAware Approximate
Mon 06:57:00 AM 20.3356 -86.1554 136° Southeast  Level FlightAware Approximate
Mon 06:58:00 AM 20.2367 -86.0553 136° Southeast  Level FlightAware Approximate
Mon 06:59:00 AM 20.1378 -85.9554 137° Southeast  Level FlightAware Approximate
Mon 07:00:00 AM 20.0388 -85.8555 137° Southeast  Level FlightAware Approximate
Mon 07:01:00 AM 19.9391 -85.7566 137° Southeast  Level FlightAware Approximate
Mon 07:02:00 AM 19.8393 -85.6578 137° Southeast  Level FlightAware Approximate
Mon 07:03:00 AM 19.7395 -85.5592 137° Southeast  Level FlightAware Approximate
Mon 07:04:00 AM 19.6395 -85.4606 137° Southeast  Level FlightAware Approximate
Mon 07:05:00 AM 19.5396 -85.3622 137° Southeast  Level FlightAware Approximate
Mon 07:06:00 AM 19.4396 -85.2639 137° Southeast  Level FlightAware Approximate
Mon 07:07:00 AM 19.3395 -85.1657 137° Southeast  Level FlightAware Approximate
Mon 07:08:00 AM 19.2394 -85.0677 137° Southeast  Level FlightAware Approximate
Mon 07:09:00 AM 19.1392 -84.9698 137° Southeast  Level FlightAware Approximate
Mon 07:10:00 AM 19.0390 -84.8720 137° Southeast  Level FlightAware Approximate
Mon 07:11:00 AM 18.9387 -84.7743 137° Southeast  Level FlightAware Approximate
Mon 07:12:00 AM 18.8384 -84.6767 137° Southeast  Level FlightAware Approximate
Mon 07:13:00 AM 18.7380 -84.5792 137° Southeast  Level FlightAware Approximate
Mon 07:14:00 AM 18.6375 -84.4819 137° Southeast  Level FlightAware Approximate
Mon 07:15:00 AM 18.5371 -84.3847 137° Southeast  Level FlightAware Approximate
Mon 07:16:00 AM 18.4368 -84.2872 137° Southeast  Level FlightAware Approximate
Mon 07:17:00 AM 18.3372 -84.1891 137° Southeast  Level FlightAware Approximate
Mon 07:18:00 AM 18.2376 -84.0910 137° Southeast  Level FlightAware Approximate
Mon 07:19:00 AM 18.1379 -83.9931 137° Southeast  Level FlightAware Approximate
Mon 07:20:00 AM 18.0382 -83.8953 137° Southeast  Level FlightAware Approximate
Mon 07:21:00 AM 17.9384 -83.7977 137° Southeast  Level FlightAware Approximate
Mon 07:22:00 AM 17.8386 -83.7001 137° Southeast  Level FlightAware Approximate
Mon 07:23:00 AM 17.7387 -83.6026 137° Southeast  Level FlightAware Approximate
Mon 07:24:00 AM 17.6388 -83.5052 137° Southeast  Level FlightAware Approximate
Mon 07:25:00 AM 17.5388 -83.4080 137° Southeast  Level FlightAware Approximate
Mon 07:26:00 AM 17.4388 -83.3108 137° Southeast  Level FlightAware Approximate
Mon 07:27:00 AM 17.3387 -83.2138 137° Southeast  Level FlightAware Approximate
Mon 07:28:00 AM 17.2386 -83.1169 137° Southeast  Level FlightAware Approximate
Mon 07:29:00 AM 17.1385 -83.0200 137° Southeast  Level FlightAware Approximate
Mon 07:30:00 AM 17.0383 -82.9233 137° Southeast  Level FlightAware Approximate
Mon 07:31:00 AM 16.9380 -82.8267 137° Southeast  Level FlightAware Approximate
Mon 07:32:00 AM 16.8377 -82.7301 137° Southeast  Level FlightAware Approximate
Mon 07:33:00 AM 16.7374 -82.6337 137° Southeast  Level FlightAware Approximate
Mon 07:34:00 AM 16.6370 -82.5374 137° Southeast  Level FlightAware Approximate
Mon 07:35:00 AM 16.5366 -82.4412 137° Southeast  Level FlightAware Approximate
Mon 07:36:00 AM 16.4361 -82.3451 137° Southeast  Level FlightAware Approximate
Mon 07:37:00 AM 16.3356 -82.2491 137° Southeast  Level FlightAware Approximate
Mon 07:38:00 AM 16.2348 -82.1533 138° Southeast  Level FlightAware Approximate
Mon 07:39:00 AM 16.1337 -82.0581 138° Southeast  Level FlightAware Approximate
Mon 07:40:00 AM 16.0325 -81.9630 138° Southeast  Level FlightAware Approximate
Mon 07:41:00 AM 15.9313 -81.8680 138° Southeast  Level FlightAware Approximate
Mon 07:42:00 AM 15.8300 -81.7731 138° Southeast  Level FlightAware Approximate
Mon 07:43:00 AM 15.7287 -81.6783 138° Southeast  Level FlightAware Approximate
Mon 07:44:00 AM 15.6274 -81.5835 138° Southeast  Level FlightAware Approximate
Mon 07:45:00 AM 15.5260 -81.4889 138° Southeast  Level FlightAware Approximate
Mon 07:46:00 AM 15.4246 -81.3944 138° Southeast  Level FlightAware Approximate
Mon 07:47:00 AM 15.3231 -81.2999 138° Southeast  Level FlightAware Approximate
Mon 07:48:00 AM 15.2216 -81.2056 138° Southeast  Level FlightAware Approximate
Mon 07:49:00 AM 15.1201 -81.1113 138° Southeast  Level FlightAware Approximate
Mon 07:50:00 AM 15.0185 -81.0171 138° Southeast  Level FlightAware Approximate
Mon 07:51:00 AM 14.9169 -80.9230 138° Southeast  Level FlightAware Approximate
Mon 07:52:00 AM 14.8153 -80.8289 138° Southeast  Level FlightAware Approximate
Mon 07:53:00 AM 14.7136 -80.7350 138° Southeast  Level FlightAware Approximate
Mon 07:54:00 AM 14.6119 -80.6411 138° Southeast  Level FlightAware Approximate
Mon 07:55:00 AM 14.5102 -80.5473 138° Southeast  Level FlightAware Approximate
Mon 07:56:00 AM 14.4084 -80.4537 138° Southeast  Level FlightAware Approximate
Mon 07:57:00 AM 14.3066 -80.3600 138° Southeast  Level FlightAware Approximate
Mon 07:58:00 AM 14.2047 -80.2665 138° Southeast  Level FlightAware Approximate
Mon 07:59:00 AM 14.1028 -80.1731 138° Southeast  Level FlightAware Approximate
Mon 08:00:00 AM 14.0009 -80.0797 138° Southeast  Level FlightAware Approximate
Mon 08:01:00 AM 13.8989 -79.9865 138° Southeast  Level FlightAware Approximate
Mon 08:02:00 AM 13.7970 -79.8933 138° Southeast  Level FlightAware Approximate
Mon 08:03:00 AM 13.6949 -79.8002 138° Southeast  Level FlightAware Approximate
Mon 08:04:00 AM 13.5929 -79.7071 138° Southeast  Level FlightAware Approximate
Mon 08:05:00 AM 13.4908 -79.6142 138° Southeast  Level FlightAware Approximate
Mon 08:06:00 AM 13.3886 -79.5213 138° Southeast  Level FlightAware Approximate
Mon 08:07:00 AM 13.2865 -79.4285 139° Southeast  Level FlightAware Approximate
Mon 08:08:00 AM 13.1843 -79.3358 139° Southeast  Level FlightAware Approximate
Mon 08:09:00 AM 13.0821 -79.2432 139° Southeast  Level FlightAware Approximate
Mon 08:10:00 AM 12.9798 -79.1506 139° Southeast  Level FlightAware Approximate
Mon 08:11:00 AM 12.8775 -79.0582 139° Southeast  Level FlightAware Approximate
Mon 08:12:00 AM 12.7752 -78.9658 139° Southeast  Level FlightAware Approximate
Mon 08:13:00 AM 12.6728 -78.8734 139° Southeast  Level FlightAware Approximate
Mon 08:14:00 AM 12.5704 -78.7812 139° Southeast  Level FlightAware Approximate
Mon 08:15:00 AM 12.4680 -78.6890 139° Southeast  Level FlightAware Approximate
Mon 08:16:00 AM 12.3655 -78.5969 139° Southeast  Level FlightAware Approximate
Mon 08:17:00 AM 12.2630 -78.5048 139° Southeast  Level FlightAware Approximate
Mon 08:18:00 AM 12.1606 -78.4128 139° Southeast  Level FlightAware Approximate
Mon 08:19:00 AM 12.0582 -78.3207 139° Southeast  Level FlightAware Approximate
Mon 08:20:00 AM 11.9557 -78.2287 139° Southeast  Level FlightAware Approximate
Mon 08:21:00 AM 11.8533 -78.1368 139° Southeast  Level FlightAware Approximate
Mon 08:22:00 AM 11.7508 -78.0449 139° Southeast  Level FlightAware Approximate
Mon 08:23:00 AM 11.6483 -77.9531 139° Southeast  Level FlightAware Approximate
Mon 08:24:00 AM 11.5458 -77.8614 139° Southeast  Level FlightAware Approximate
Mon 08:25:00 AM 11.4432 -77.7697 139° Southeast  Level FlightAware Approximate
Mon 08:26:00 AM 11.3406 -77.6781 139° Southeast  Level FlightAware Approximate
Mon 08:27:00 AM 11.2380 -77.5866 139° Southeast  Level FlightAware Approximate
Mon 08:28:00 AM 11.1353 -77.4951 139° Southeast  Level FlightAware Approximate
Mon 08:29:00 AM 11.0326 -77.4037 139° Southeast  Level FlightAware Approximate
Mon 08:30:00 AM 10.9299 -77.3124 139° Southeast  Level FlightAware Approximate
Mon 08:31:00 AM 10.8272 -77.2211 139° Southeast  Level FlightAware Approximate
Mon 08:32:00 AM 10.7244 -77.1299 139° Southeast  Level FlightAware Approximate
Mon 08:33:00 AM 10.6216 -77.0387 139° Southeast  Level FlightAware Approximate
Mon 08:34:00 AM 10.5188 -76.9477 139° Southeast  Level FlightAware Approximate
Mon 08:35:00 AM 10.4160 -76.8566 139° Southeast  Level FlightAware Approximate
Mon 08:36:00 AM 10.3131 -76.7657 139° Southeast  Level FlightAware Approximate
Mon 08:37:00 AM 10.2102 -76.6748 139° Southeast  Level FlightAware Approximate
Mon 08:38:00 AM 10.1073 -76.5839 139° Southeast  Level FlightAware Approximate
Mon 08:39:00 AM 10.0043 -76.4932 139° Southeast  Level FlightAware Approximate
Mon 08:40:00 AM 9.9011 -76.4027 139° Southeast  Level FlightAware Approximate
Mon 08:41:00 AM 9.7980 -76.3122 139° Southeast  Level FlightAware Approximate
Mon 08:42:00 AM 9.6948 -76.2218 139° Southeast  Level FlightAware Approximate
Mon 08:43:00 AM 9.5916 -76.1314 139° Southeast  Level FlightAware Approximate
Mon 08:44:00 AM 9.4883 -76.0411 139° Southeast  Level FlightAware Approximate
Mon 08:45:00 AM 9.3851 -75.9509 139° Southeast  Level FlightAware Approximate
Mon 08:46:00 AM 9.2818 -75.8606 139° Southeast  Level FlightAware Approximate
Mon 08:47:00 AM 9.1785 -75.7705 139° Southeast  Level FlightAware Approximate
Mon 08:48:00 AM 9.0752 -75.6804 139° Southeast  Level FlightAware Approximate
Mon 08:49:00 AM 8.9718 -75.5904 139° Southeast  Level FlightAware Approximate
Mon 08:50:00 AM 8.8684 -75.5004 139° Southeast  Level FlightAware Approximate
Mon 08:51:00 AM 8.7650 -75.4105 139° Southeast  Level FlightAware Approximate
Mon 08:52:00 AM 8.6616 -75.3206 139° Southeast  Level FlightAware Approximate
Mon 08:53:00 AM 8.5582 -75.2307 139° Southeast  Level FlightAware Approximate
Mon 08:54:00 AM 8.4547 -75.1409 139° Southeast  Level FlightAware Approximate
Mon 08:55:00 AM 8.3512 -75.0512 139° Southeast  Level FlightAware Approximate
Mon 08:56:00 AM 8.2478 -74.9615 139° Southeast  Level FlightAware Approximate
Mon 08:57:00 AM 8.1442 -74.8718 139° Southeast  Level FlightAware Approximate
Mon 08:58:00 AM 8.0407 -74.7822 139° Southeast  Level FlightAware Approximate
Mon 08:59:00 AM 7.9371 -74.6927 139° Southeast  Level FlightAware Approximate
Mon 09:00:00 AM 7.8335 -74.6032 139° Southeast  Level FlightAware Approximate
Mon 09:01:00 AM 7.7300 -74.5137 139° Southeast  Level FlightAware Approximate
Mon 09:02:00 AM 7.6263 -74.4243 139° Southeast  Level FlightAware Approximate
Mon 09:03:00 AM 7.5227 -74.3349 139° Southeast  Level FlightAware Approximate
Mon 09:04:00 AM 7.4191 -74.2456 139° Southeast  Level FlightAware Approximate
Mon 09:05:00 AM 7.3154 -74.1563 139° Southeast  Level FlightAware Approximate
Mon 09:06:00 AM 7.2117 -74.0670 140° Southeast  Level FlightAware Approximate
Mon 09:07:00 AM 7.1080 -73.9778 140° Southeast  Level FlightAware Approximate
Mon 09:08:00 AM 7.0043 -73.8886 140° Southeast  Level FlightAware Approximate
Mon 09:09:00 AM 6.9006 -73.7995 140° Southeast  Level FlightAware Approximate
Mon 09:10:00 AM 6.7968 -73.7104 140° Southeast  Level FlightAware Approximate
Mon 09:11:00 AM 6.6930 -73.6214 140° Southeast  Level FlightAware Approximate
Mon 09:12:00 AM 6.5893 -73.5324 140° Southeast  Level FlightAware Approximate
Mon 09:13:00 AM 6.4855 -73.4434 140° Southeast  Level FlightAware Approximate
Mon 09:14:00 AM 6.3816 -73.3544 140° Southeast  Level FlightAware Approximate
Mon 09:15:00 AM 6.2778 -73.2655 140° Southeast  Level FlightAware Approximate
Mon 09:16:00 AM 6.1740 -73.1767 140° Southeast  Level FlightAware Approximate
Mon 09:17:00 AM 6.0701 -73.0878 140° Southeast  Level FlightAware Approximate
Mon 09:18:00 AM 5.9662 -72.9990 140° Southeast  Level FlightAware Approximate
Mon 09:19:00 AM 5.8623 -72.9102 140° Southeast  Level FlightAware Approximate
Mon 09:20:00 AM 5.7584 -72.8215 140° Southeast  Level FlightAware Approximate
Mon 09:21:00 AM 5.6545 -72.7328 140° Southeast  Level FlightAware Approximate
Mon 09:22:00 AM 5.5506 -72.6441 140° Southeast  Level FlightAware Approximate
Mon 09:23:00 AM 5.4466 -72.5555 140° Southeast  Level FlightAware Approximate
Mon 09:24:00 AM 5.3427 -72.4669 140° Southeast  Level FlightAware Approximate
Mon 09:25:00 AM 5.2387 -72.3783 140° Southeast  Level FlightAware Approximate
Mon 09:26:00 AM 5.1347 -72.2898 140° Southeast  Level FlightAware Approximate
Mon 09:27:00 AM 5.0307 -72.2012 140° Southeast  Level FlightAware Approximate
Mon 09:28:00 AM 4.9267 -72.1127 140° Southeast  Level FlightAware Approximate
Mon 09:29:00 AM 4.8227 -72.0243 140° Southeast  Level FlightAware Approximate
Mon 09:30:00 AM 4.7187 -71.9359 140° Southeast  Level FlightAware Approximate
Mon 09:31:00 AM 4.6146 -71.8474 140° Southeast  Level FlightAware Approximate
Mon 09:32:00 AM 4.5106 -71.7590 140° Southeast  Level FlightAware Approximate
Mon 09:33:00 AM 4.4065 -71.6707 140° Southeast  Level FlightAware Approximate
Mon 09:34:00 AM 4.3025 -71.5824 140° Southeast  Level FlightAware Approximate
Mon 09:35:00 AM 4.1984 -71.4940 140° Southeast  Level FlightAware Approximate
Mon 09:36:00 AM 4.0943 -71.4057 140° Southeast  Level FlightAware Approximate
Mon 09:37:00 AM 3.9902 -71.3175 140° Southeast  Level FlightAware Approximate
Mon 09:38:00 AM 3.8861 -71.2292 140° Southeast  Level FlightAware Approximate
Mon 09:39:00 AM 3.7820 -71.1410 140° Southeast  Level FlightAware Approximate
Mon 09:40:00 AM 3.6778 -71.0528 140° Southeast  Level FlightAware Approximate
Mon 09:41:00 AM 3.5737 -70.9647 140° Southeast  Level FlightAware Approximate
Mon 09:42:00 AM 3.4695 -70.8765 140° Southeast  Level FlightAware Approximate
Mon 09:43:00 AM 3.3654 -70.7884 140° Southeast  Level FlightAware Approximate
Mon 09:44:00 AM 3.2612 -70.7002 140° Southeast  Level FlightAware Approximate
Mon 09:45:00 AM 3.1570 -70.6121 140° Southeast  Level FlightAware Approximate
Mon 09:46:00 AM 3.0529 -70.5240 140° Southeast  Level FlightAware Approximate
Mon 09:47:00 AM 2.9487 -70.4360 140° Southeast  Level FlightAware Approximate
Mon 09:48:00 AM 2.8447 -70.3477 139° Southeast  Level FlightAware Approximate
Mon 09:49:00 AM 2.7413 -70.2587 139° Southeast  Level FlightAware Approximate
Mon 09:50:00 AM 2.6379 -70.1697 139° Southeast  Level FlightAware Approximate
Mon 09:51:00 AM 2.5345 -70.0808 139° Southeast  Level FlightAware Approximate
Mon 09:52:00 AM 2.4311 -69.9918 139° Southeast  Level FlightAware Approximate
Mon 09:53:00 AM 2.3277 -69.9028 139° Southeast  Level FlightAware Approximate
Mon 09:54:00 AM 2.2243 -69.8139 139° Southeast  Level FlightAware Approximate
Mon 09:55:00 AM 2.1207 -69.7252 140° Southeast  Level FlightAware Approximate
Mon 09:56:00 AM 2.0167 -69.6371 140° Southeast  Level FlightAware Approximate
Mon 09:57:00 AM 1.9126 -69.5489 140° Southeast  Level FlightAware Approximate
Mon 09:58:00 AM 1.8085 -69.4608 140° Southeast  Level FlightAware Approximate
Mon 09:59:00 AM 1.7044 -69.3727 140° Southeast  Level FlightAware Approximate
Mon 10:00:00 AM 1.6003 -69.2846 140° Southeast  Level FlightAware Approximate
Mon 10:01:00 AM 1.4962 -69.1965 140° Southeast  Level FlightAware Approximate
Mon 10:02:00 AM 1.3921 -69.1084 140° Southeast  Level FlightAware Approximate
Mon 10:03:00 AM 1.2880 -69.0204 140° Southeast  Level FlightAware Approximate
Mon 10:04:00 AM 1.1839 -68.9323 140° Southeast  Level FlightAware Approximate
Mon 10:05:00 AM 1.0798 -68.8443 140° Southeast  Level FlightAware Approximate
Mon 10:06:00 AM 0.9757 -68.7562 140° Southeast  Level FlightAware Approximate
Mon 10:07:00 AM 0.8716 -68.6682 140° Southeast  Level FlightAware Approximate
Mon 10:08:00 AM 0.7675 -68.5801 140° Southeast  Level FlightAware Approximate
Mon 10:09:00 AM 0.6634 -68.4921 140° Southeast  Level FlightAware Approximate
Mon 10:10:00 AM 0.5592 -68.4040 140° Southeast  Level FlightAware Approximate
Mon 10:11:00 AM 0.4551 -68.3160 140° Southeast  Level FlightAware Approximate
Mon 10:12:00 AM 0.3510 -68.2280 140° Southeast  Level FlightAware Approximate
Mon 10:13:00 AM 0.2469 -68.1400 140° Southeast  Level FlightAware Approximate
Mon 10:14:00 AM 0.1428 -68.0519 140° Southeast  Level FlightAware Approximate
Mon 10:15:00 AM 0.0386 -67.9639 140° Southeast  Level FlightAware Approximate
Mon 10:16:00 AM -0.0655 -67.8759 140° Southeast  Level FlightAware Approximate
Mon 10:17:00 AM -0.1696 -67.7879 140° Southeast  Level FlightAware Approximate
Mon 10:18:00 AM -0.2737 -67.6999 140° Southeast  Level FlightAware Approximate
Mon 10:19:00 AM -0.3778 -67.6118 140° Southeast  Level FlightAware Approximate
Mon 10:20:00 AM -0.4820 -67.5238 140° Southeast  Level FlightAware Approximate
Mon 10:21:00 AM -0.5861 -67.4358 140° Southeast  Level FlightAware Approximate
Mon 10:22:00 AM -0.6902 -67.3477 140° Southeast  Level FlightAware Approximate
Mon 10:23:00 AM -0.7943 -67.2597 140° Southeast  Level FlightAware Approximate
Mon 10:24:00 AM -0.8984 -67.1717 140° Southeast  Level FlightAware Approximate
Mon 10:25:00 AM -1.0025 -67.0836 140° Southeast  Level FlightAware Approximate
Mon 10:26:00 AM -1.1066 -66.9956 140° Southeast  Level FlightAware Approximate
Mon 10:27:00 AM -1.2107 -66.9075 140° Southeast  Level FlightAware Approximate
Mon 10:28:00 AM -1.3148 -66.8194 140° Southeast  Level FlightAware Approximate
Mon 10:29:00 AM -1.4189 -66.7314 140° Southeast  Level FlightAware Approximate
Mon 10:30:00 AM -1.5230 -66.6433 140° Southeast  Level FlightAware Approximate
Mon 10:31:00 AM -1.6271 -66.5552 140° Southeast  Level FlightAware Approximate
Mon 10:32:00 AM -1.7312 -66.4671 140° Southeast  Level FlightAware Approximate
Mon 10:33:00 AM -1.8353 -66.3790 140° Southeast  Level FlightAware Approximate
Mon 10:34:00 AM -1.9394 -66.2908 140° Southeast  Level FlightAware Approximate
Mon 10:35:00 AM -2.0435 -66.2027 140° Southeast  Level FlightAware Approximate
Mon 10:36:00 AM -2.1475 -66.1146 140° Southeast  Level FlightAware Approximate
Mon 10:37:00 AM -2.2516 -66.0264 140° Southeast  Level FlightAware Approximate
Mon 10:38:00 AM -2.3557 -65.9383 140° Southeast  Level FlightAware Approximate
Mon 10:39:00 AM -2.4597 -65.8501 140° Southeast  Level FlightAware Approximate
Mon 10:40:00 AM -2.5638 -65.7619 140° Southeast  Level FlightAware Approximate
Mon 10:41:00 AM -2.6678 -65.6737 140° Southeast  Level FlightAware Approximate
Mon 10:42:00 AM -2.7719 -65.5855 140° Southeast  Level FlightAware Approximate
Mon 10:43:00 AM -2.8759 -65.4972 140° Southeast  Level FlightAware Approximate
Mon 10:44:00 AM -2.9799 -65.4090 140° Southeast  Level FlightAware Approximate
Mon 10:45:00 AM -3.0839 -65.3207 140° Southeast  Level FlightAware Approximate
Mon 10:46:00 AM -3.1879 -65.2324 140° Southeast  Level FlightAware Approximate
Mon 10:47:00 AM -3.2919 -65.1441 140° Southeast  Level FlightAware Approximate
Mon 10:48:00 AM -3.3959 -65.0558 140° Southeast  Level FlightAware Approximate
Mon 10:49:00 AM -3.4999 -64.9674 140° Southeast  Level FlightAware Approximate
Mon 10:50:00 AM -3.6039 -64.8791 140° Southeast  Level FlightAware Approximate
Mon 10:51:00 AM -3.7079 -64.7907 140° Southeast  Level FlightAware Approximate
Mon 10:52:00 AM -3.8118 -64.7023 140° Southeast  Level FlightAware Approximate
Mon 10:53:00 AM -3.9158 -64.6139 140° Southeast  Level FlightAware Approximate
Mon 10:54:00 AM -4.0197 -64.5254 140° Southeast  Level FlightAware Approximate
Mon 10:55:00 AM -4.1236 -64.4370 140° Southeast  Level FlightAware Approximate
Mon 10:56:00 AM -4.2276 -64.3485 140° Southeast  Level FlightAware Approximate
Mon 10:57:00 AM -4.3315 -64.2599 140° Southeast  Level FlightAware Approximate
Mon 10:58:00 AM -4.4354 -64.1714 140° Southeast  Level FlightAware Approximate
Mon 10:59:00 AM -4.5393 -64.0828 140° Southeast  Level FlightAware Approximate
Mon 11:00:00 AM -4.6431 -63.9943 140° Southeast  Level FlightAware Approximate
Mon 11:01:00 AM -4.7470 -63.9056 140° Southeast  Level FlightAware Approximate
Mon 11:02:00 AM -4.8509 -63.8170 140° Southeast  Level FlightAware Approximate
Mon 11:03:00 AM -4.9547 -63.7283 140° Southeast  Level FlightAware Approximate
Mon 11:04:00 AM -5.0585 -63.6396 140° Southeast  Level FlightAware Approximate
Mon 11:05:00 AM -5.1624 -63.5509 140° Southeast  Level FlightAware Approximate
Mon 11:06:00 AM -5.2662 -63.4621 140° Southeast  Level FlightAware Approximate
Mon 11:07:00 AM -5.3700 -63.3733 140° Southeast  Level FlightAware Approximate
Mon 11:08:00 AM -5.4738 -63.2845 140° Southeast  Level FlightAware Approximate
Mon 11:09:00 AM -5.5775 -63.1957 140° Southeast  Level FlightAware Approximate
Mon 11:10:00 AM -5.6813 -63.1068 140° Southeast  Level FlightAware Approximate
Mon 11:11:00 AM -5.7850 -63.0179 140° Southeast  Level FlightAware Approximate
Mon 11:12:00 AM -5.8888 -62.9289 140° Southeast  Level FlightAware Approximate
Mon 11:13:00 AM -5.9925 -62.8400 140° Southeast  Level FlightAware Approximate
Mon 11:14:00 AM -6.0962 -62.7509 140° Southeast  Level FlightAware Approximate
Mon 11:15:00 AM -6.1999 -62.6619 140° Southeast  Level FlightAware Approximate
Mon 11:16:00 AM -6.3036 -62.5728 140° Southeast  Level FlightAware Approximate
Mon 11:17:00 AM -6.4072 -62.4837 139° Southeast  Level FlightAware Approximate
Mon 11:18:00 AM -6.5109 -62.3946 139° Southeast  Level FlightAware Approximate
Mon 11:19:00 AM -6.6145 -62.3054 139° Southeast  Level FlightAware Approximate
Mon 11:20:00 AM -6.7181 -62.2161 139° Southeast  Level FlightAware Approximate
Mon 11:21:00 AM -6.8217 -62.1269 139° Southeast  Level FlightAware Approximate
Mon 11:22:00 AM -6.9253 -62.0376 139° Southeast  Level FlightAware Approximate
Mon 11:23:00 AM -7.0288 -61.9482 139° Southeast  Level FlightAware Approximate
Mon 11:24:00 AM -7.1324 -61.8589 139° Southeast  Level FlightAware Approximate
Mon 11:25:00 AM -7.2359 -61.7695 139° Southeast  Level FlightAware Approximate
Mon 11:26:00 AM -7.3394 -61.6800 139° Southeast  Level FlightAware Approximate
Mon 11:27:00 AM -7.4429 -61.5905 139° Southeast  Level FlightAware Approximate
Mon 11:28:00 AM -7.5464 -61.5009 139° Southeast  Level FlightAware Approximate
Mon 11:29:00 AM -7.6498 -61.4114 139° Southeast  Level FlightAware Approximate
Mon 11:30:00 AM -7.7533 -61.3217 139° Southeast  Level FlightAware Approximate
Mon 11:31:00 AM -7.8567 -61.2320 139° Southeast  Level FlightAware Approximate
Mon 11:32:00 AM -7.9601 -61.1423 139° Southeast  Level FlightAware Approximate
Mon 11:33:00 AM -8.0635 -61.0526 139° Southeast  Level FlightAware Approximate
Mon 11:34:00 AM -8.1669 -60.9627 139° Southeast  Level FlightAware Approximate
Mon 11:35:00 AM -8.2702 -60.8729 139° Southeast  Level FlightAware Approximate
Mon 11:36:00 AM -8.3735 -60.7830 139° Southeast  Level FlightAware Approximate
Mon 11:37:00 AM -8.4768 -60.6930 139° Southeast  Level FlightAware Approximate
Mon 11:38:00 AM -8.5801 -60.6030 139° Southeast  Level FlightAware Approximate
Mon 11:39:00 AM -8.6833 -60.5130 139° Southeast  Level FlightAware Approximate
Mon 11:40:00 AM -8.7866 -60.4229 139° Southeast  Level FlightAware Approximate
Mon 11:41:00 AM -8.8898 -60.3327 139° Southeast  Level FlightAware Approximate
Mon 11:42:00 AM -8.9930 -60.2425 139° Southeast  Level FlightAware Approximate
Mon 11:43:00 AM -9.0962 -60.1523 139° Southeast  Level FlightAware Approximate
Mon 11:44:00 AM -9.1993 -60.0620 139° Southeast  Level FlightAware Approximate
Mon 11:45:00 AM -9.3025 -59.9716 139° Southeast  Level FlightAware Approximate
Mon 11:46:00 AM -9.4056 -59.8812 139° Southeast  Level FlightAware Approximate
Mon 11:48:30 AM -9.6632 -59.6549 139° Southeast  Level FlightAware Approximate
Mon 11:50:00 AM -9.8178 -59.5190 139° Southeast  Level FlightAware Approximate
Mon 11:51:00 AM -9.9207 -59.4283 139° Southeast  Level FlightAware Approximate
Mon 11:52:00 AM -10.0237 -59.3376 139° Southeast  Level FlightAware Approximate
Mon 11:53:00 AM -10.1266 -59.2468 139° Southeast  Level FlightAware Approximate
Mon 11:54:00 AM -10.2296 -59.1559 139° Southeast  Level FlightAware Approximate
Mon 11:55:00 AM -10.3324 -59.0650 139° Southeast  Level FlightAware Approximate
Mon 11:56:00 AM -10.4353 -58.9740 139° Southeast  Level FlightAware Approximate
Mon 11:57:00 AM -10.5381 -58.8830 139° Southeast  Level FlightAware Approximate
Mon 11:58:00 AM -10.6410 -58.7919 139° Southeast  Level FlightAware Approximate
Mon 11:59:00 AM -10.7437 -58.7007 139° Southeast  Level FlightAware Approximate
Mon 12:00:00 PM -10.8465 -58.6095 139° Southeast  Level FlightAware Approximate
Mon 12:01:00 PM -10.9492 -58.5182 139° Southeast  Level FlightAware Approximate
Mon 12:02:00 PM -11.0520 -58.4268 139° Southeast  Level FlightAware Approximate
Mon 12:03:00 PM -11.1546 -58.3354 139° Southeast  Level FlightAware Approximate
Mon 12:04:00 PM -11.2573 -58.2439 139° Southeast  Level FlightAware Approximate
Mon 12:05:00 PM -11.3599 -58.1524 139° Southeast  Level FlightAware Approximate
Mon 12:06:00 PM -11.4625 -58.0608 139° Southeast  Level FlightAware Approximate
Mon 12:07:00 PM -11.5651 -57.9691 139° Southeast  Level FlightAware Approximate
Mon 12:08:00 PM -11.6676 -57.8774 139° Southeast  Level FlightAware Approximate
Mon 12:09:00 PM -11.7701 -57.7856 139° Southeast  Level FlightAware Approximate
Mon 12:10:00 PM -11.8726 -57.6937 139° Southeast  Level FlightAware Approximate
Mon 12:11:00 PM -11.9750 -57.6017 139° Southeast  Level FlightAware Approximate
Mon 12:12:00 PM -12.0775 -57.5097 139° Southeast  Level FlightAware Approximate
Mon 12:13:00 PM -12.1798 -57.4176 139° Southeast  Level FlightAware Approximate
Mon 12:14:00 PM -12.2822 -57.3255 139° Southeast  Level FlightAware Approximate
Mon 12:15:00 PM -12.3845 -57.2332 139° Southeast  Level FlightAware Approximate
Mon 12:16:00 PM -12.4868 -57.1409 139° Southeast  Level FlightAware Approximate
Mon 12:17:00 PM -12.5891 -57.0486 139° Southeast  Level FlightAware Approximate
Mon 12:18:00 PM -12.6913 -56.9561 139° Southeast  Level FlightAware Approximate
Mon 12:19:00 PM -12.7935 -56.8636 139° Southeast  Level FlightAware Approximate
Mon 12:20:00 PM -12.8957 -56.7710 139° Southeast  Level FlightAware Approximate
Mon 12:21:00 PM -12.9978 -56.6783 139° Southeast  Level FlightAware Approximate
Mon 12:22:00 PM -13.0999 -56.5856 139° Southeast  Level FlightAware Approximate
Mon 12:23:00 PM -13.2020 -56.4927 138° Southeast  Level FlightAware Approximate
Mon 12:24:00 PM -13.3041 -56.3998 138° Southeast  Level FlightAware Approximate
Mon 12:25:00 PM -13.4060 -56.3068 138° Southeast  Level FlightAware Approximate
Mon 12:26:00 PM -13.5080 -56.2138 138° Southeast  Level FlightAware Approximate
Mon 12:27:00 PM -13.6100 -56.1206 138° Southeast  Level FlightAware Approximate
Mon 12:28:00 PM -13.7119 -56.0274 138° Southeast  Level FlightAware Approximate
Mon 12:29:00 PM -13.8137 -55.9341 138° Southeast  Level FlightAware Approximate
Mon 12:30:00 PM -13.9155 -55.8407 138° Southeast  Level FlightAware Approximate
Mon 12:31:00 PM -14.0173 -55.7473 138° Southeast  Level FlightAware Approximate
Mon 12:32:00 PM -14.1191 -55.6537 138° Southeast  Level FlightAware Approximate
Mon 12:33:00 PM -14.2208 -55.5601 138° Southeast  Level FlightAware Approximate
Mon 12:34:00 PM -14.3225 -55.4664 138° Southeast  Level FlightAware Approximate
Mon 12:35:00 PM -14.4241 -55.3726 138° Southeast  Level FlightAware Approximate
Mon 12:36:00 PM -14.5258 -55.2787 138° Southeast  Level FlightAware Approximate
Mon 12:37:00 PM -14.6273 -55.1847 138° Southeast  Level FlightAware Approximate
Mon 12:38:00 PM -14.7289 -55.0906 138° Southeast  Level FlightAware Approximate
Mon 12:39:00 PM -14.8304 -54.9965 138° Southeast  Level FlightAware Approximate
Mon 12:40:00 PM -14.9318 -54.9022 138° Southeast  Level FlightAware Approximate
Mon 12:41:00 PM -15.0332 -54.8079 138° Southeast  Level FlightAware Approximate
Mon 12:42:00 PM -15.1346 -54.7135 138° Southeast  Level FlightAware Approximate
Mon 12:43:00 PM -15.2360 -54.6190 138° Southeast  Level FlightAware Approximate
Mon 12:44:00 PM -15.3373 -54.5244 138° Southeast  Level FlightAware Approximate
Mon 12:45:00 PM -15.4385 -54.4297 138° Southeast  Level FlightAware Approximate
Mon 12:46:00 PM -15.5397 -54.3349 138° Southeast  Level FlightAware Approximate
Mon 12:47:00 PM -15.6409 -54.2400 138° Southeast  Level FlightAware Approximate
Mon 12:48:00 PM -15.7421 -54.1451 138° Southeast  Level FlightAware Approximate
Mon 12:49:00 PM -15.8432 -54.0500 138° Southeast  Level FlightAware Approximate
Mon 12:50:00 PM -15.9442 -53.9548 138° Southeast  Level FlightAware Approximate
Mon 12:51:00 PM -16.0452 -53.8596 138° Southeast  Level FlightAware Approximate
Mon 12:52:00 PM -16.1462 -53.7642 138° Southeast  Level FlightAware Approximate
Mon 12:53:00 PM -16.2472 -53.6688 138° Southeast  Level FlightAware Approximate
Mon 12:54:00 PM -16.3480 -53.5732 138° Southeast  Level FlightAware Approximate
Mon 12:55:00 PM -16.4489 -53.4776 138° Southeast  Level FlightAware Approximate
Mon 12:56:00 PM -16.5497 -53.3818 138° Southeast  Level FlightAware Approximate
Mon 12:57:00 PM -16.6504 -53.2860 138° Southeast  Level FlightAware Approximate
Mon 12:58:00 PM -16.7512 -53.1900 138° Southeast  Level FlightAware Approximate
Mon 12:59:00 PM -16.8518 -53.0940 138° Southeast  Level FlightAware Approximate
Mon 01:00:00 PM -16.9525 -52.9978 138° Southeast  Level FlightAware Approximate
Mon 01:01:00 PM -17.0530 -52.9016 138° Southeast  Level FlightAware Approximate
Mon 01:02:00 PM -17.1536 -52.8052 138° Southeast  Level FlightAware Approximate
Mon 01:03:00 PM -17.2541 -52.7088 137° Southeast  Level FlightAware Approximate
Mon 01:04:00 PM -17.3545 -52.6122 137° Southeast  Level FlightAware Approximate
Mon 01:05:00 PM -17.4549 -52.5155 137° Southeast  Level FlightAware Approximate
Mon 01:06:00 PM -17.5553 -52.4187 137° Southeast  Level FlightAware Approximate
Mon 01:07:00 PM -17.6556 -52.3218 137° Southeast  Level FlightAware Approximate
Mon 01:08:00 PM -17.7558 -52.2249 137° Southeast  Level FlightAware Approximate
Mon 01:09:00 PM -17.8560 -52.1278 137° Southeast  Level FlightAware Approximate
Mon 01:10:00 PM -17.9562 -52.0305 137° Southeast  Level FlightAware Approximate
Mon 01:11:00 PM -18.0563 -51.9332 137° Southeast  Level FlightAware Approximate
Mon 01:12:00 PM -18.1564 -51.8358 137° Southeast  Level FlightAware Approximate
Mon 01:13:00 PM -18.2564 -51.7383 137° Southeast  Level FlightAware Approximate
Mon 01:14:00 PM -18.3564 -51.6406 137° Southeast  Level FlightAware Approximate
Mon 01:15:00 PM -18.4563 -51.5428 137° Southeast  Level FlightAware Approximate
Mon 01:16:00 PM -18.5562 -51.4450 137° Southeast  Level FlightAware Approximate
Mon 01:17:00 PM -18.6560 -51.3470 137° Southeast  Level FlightAware Approximate
Mon 01:18:00 PM -18.7557 -51.2488 137° Southeast  Level FlightAware Approximate
Mon 01:19:00 PM -18.8554 -51.1506 137° Southeast  Level FlightAware Approximate
Mon 01:20:00 PM -18.9551 -51.0523 137° Southeast  Level FlightAware Approximate
Mon 01:21:00 PM -19.0547 -50.9538 137° Southeast  Level FlightAware Approximate
Mon 01:22:00 PM -19.1543 -50.8552 137° Southeast  Level FlightAware Approximate
Mon 01:23:00 PM -19.2538 -50.7565 137° Southeast  Level FlightAware Approximate
Mon 01:24:00 PM -19.3532 -50.6577 137° Southeast  Level FlightAware Approximate
Mon 01:25:00 PM -19.4526 -50.5588 137° Southeast  Level FlightAware Approximate
Mon 01:26:00 PM -19.5520 -50.4597 137° Southeast  Level FlightAware Approximate
Mon 01:27:00 PM -19.6512 -50.3605 137° Southeast  Level FlightAware Approximate
Mon 01:28:00 PM -19.7505 -50.2612 137° Southeast  Level FlightAware Approximate
Mon 01:29:00 PM -19.8497 -50.1618 137° Southeast  Level FlightAware Approximate
Mon 01:30:00 PM -19.9488 -50.0622 137° Southeast  Level FlightAware Approximate
Mon 01:31:00 PM -20.0479 -49.9625 137° Southeast  Level FlightAware Approximate
Mon 01:32:00 PM -20.1469 -49.8627 137° Southeast  Level FlightAware Approximate
Mon 01:33:00 PM -20.2458 -49.7628 137° Southeast  Level FlightAware Approximate
Mon 01:34:00 PM -20.3447 -49.6627 137° Southeast  Level FlightAware Approximate
Mon 01:35:00 PM -20.4436 -49.5625 136° Southeast  Level FlightAware Approximate
Mon 01:36:00 PM -20.5424 -49.4622 136° Southeast  Level FlightAware Approximate
Mon 01:37:00 PM -20.6411 -49.3618 136° Southeast  Level FlightAware Approximate
Mon 01:38:00 PM -20.7398 -49.2612 136° Southeast  Level FlightAware Approximate
Mon 01:39:00 PM -20.8384 -49.1605 136° Southeast  Level FlightAware Approximate
Mon 01:40:00 PM -20.9369 -49.0596 136° Southeast  Level FlightAware Approximate
Mon 01:41:00 PM -21.0354 -48.9587 136° Southeast  Level FlightAware Approximate
Mon 01:42:00 PM -21.1338 -48.8576 136° Southeast  Level FlightAware Approximate
Mon 01:43:00 PM -21.2322 -48.7563 136° Southeast  Level FlightAware Approximate
Mon 01:44:00 PM -21.3305 -48.6549 136° Southeast  Level FlightAware Approximate
Mon 01:45:00 PM -21.4288 -48.5534 136° Southeast  Level FlightAware Approximate
Mon 01:46:00 PM -21.5270 -48.4518 136° Southeast  Level FlightAware Approximate
Mon 01:47:00 PM -21.6251 -48.3500 136° Southeast  Level FlightAware Approximate
Mon 01:48:00 PM -21.7232 -48.2481 136° Southeast  Level FlightAware Approximate
Mon 01:49:00 PM -21.8212 -48.1460 136° Southeast  Level FlightAware Approximate
Mon 01:50:00 PM -21.9249 -48.0525 133° Southeast  Level FlightAware Approximate
Mon 01:51:00 PM -22.0198 -47.9469 137° Southeast  Level FlightAware Approximate
Mon 01:52:00 PM -22.1198 -47.8469 137° Southeast  Level FlightAware Approximate
Mon 01:53:00 PM -22.2192 -47.7463 126° Southeast  Level FlightAware Approximate
Mon 01:54:00 PM -22.3114 -47.6387 137° Southeast  Level FlightAware Approximate
Mon 01:55:00 PM -22.4114 -47.5386 137° Southeast  Level FlightAware Approximate
Mon 01:56:00 PM -22.5084 -47.4349 135° Southeast  Level FlightAware Approximate
Mon 01:57:00 PM -22.6052 -47.3308 135° Southeast  Level FlightAware Approximate
Mon 01:58:00 PM -22.7019 -47.2267 135° Southeast  Level FlightAware Approximate
Mon 01:59:00 PM -22.7985 -47.1224 135° Southeast  Level FlightAware Approximate
Mon 02:00:00 PM -22.8968 -47.0199 137° Southeast  Level FlightAware Approximate
Mon 02:01:00 PM -22.9971 -46.9196 137° Southeast  Level FlightAware Approximate
Mon 02:02:00 PM -23.0974 -46.8193 137° Southeast  Level FlightAware Approximate
Mon 02:03:00 PM -23.1937 -46.7144 134° Southeast  Level FlightAware Approximate
Mon 02:04:00 PM -23.2846 -46.6039 129° Southeast  Level FlightAware Approximate
Mon 02:05:00 PM -23.3825 -46.5009 137° Southeast  Level FlightAware Approximate
Mon 02:06:00 PM -23.4167 -46.4667 137° Southeast  Level FlightAware Approximate
Mon 02:07:00 PM -23.4321 -46.4695 137° Southeast  Level Estimated
Mon 02:08:00 PM -23.4321 -46.4695 137° Southeast  Level Estimated
Mon 02:09:00 PM -23.4321 -46.4695 137° Southeast  Level Estimated
Mon 02:10:00 PM -23.4321 -46.4695 137° Southeast  Level Estimated
Mon 02:11:00 PM -23.4321 -46.4695 137° Southeast  Level Estimated
Mon 02:12:00 PM -23.4321 -46.4695 137° Southeast  Level Estimated
Mon 02:13:00 PM -23.4321 -46.4695 137° Southeast  Level Estimated
Mon 02:14:00 PM -23.4321 -46.4695 137° Southeast  Level Estimated
Mon 02:15:00 PM -23.4321 -46.4695 137° Southeast  Level Estimated
Mon 02:16:00 PM -23.4321 -46.4695 137° Southeast  Level Estimated
Mon 02:17:00 PM -23.4321 -46.4695 137° Southeast  Level Estimated
Mon 02:18:00 PM -23.4321 -46.4695 137° Southeast  Level Estimated

Login

Don't have an account? Register now (free) for customized features, flight alerts, and more!